Rushville, Nebraska
Current Conditions -  °F | °C
As of 7:52 PM on Wednesday 26 Nov 2014 (Local Time) from KIEN Reporting Station
Overcast Overcast  
Wind Chill: 29°   Ceiling: 3200
Heat Index: 29°   Visibility: 10mi
Dew Point: 24°   Wind: 0mph
Humidity: 82%   Direction: NA
Pressure: 30.29"   Gusts: NA
Location:  42.72°N, 102.46°W
Report Text: KIEN 270252Z AUTO 00000KT 10SM OVC032 M02/M04 A3029 RMK AO2 SNB30E44 SLP295 P0000 60000 T10171044 53006
Loading
Personal Weather Stations






























Interactive Weather Map New forecast layout! Learn more

10-Day Weather Forecast

Advertisements
Track Severe Weather on mobile